Time;durP1;ratioP1;P1;durP2;ratioP2;P2;SDS_P1;SDS_P2;PMS_P1;PMS_P2;Temp;Humidity;BMP_temperature;BMP_pressure;BME280_temperature;BME280_humidity;BME280_pressure;Samples;Min_cycle;Max_cycle;Signal;HPM_P1;HPM_P2
2022/09/02 00:01:59;;;;;;;1.00;0.90;;;15.60;1.00;;;;;;5018898;28;20197;-80
2022/09/02 00:04:25;;;;;;;2.80;0.90;;;15.50;1.00;;;;;;5017431;28;20181;-79
2022/09/02 00:06:53;;;;;;;1.23;0.93;;;15.50;1.00;;;;;;5017468;28;20255;-80
2022/09/02 00:09:20;;;;;;;2.50;1.10;;;15.50;1.00;;;;;;5016964;28;20200;-80
2022/09/02 00:11:48;;;;;;;1.17;0.97;;;15.50;1.00;;;;;;5018145;28;20235;-79
2022/09/02 00:14:18;;;;;;;4.43;1.20;;;15.40;1.00;;;;;;5018053;28;20165;-79
2022/09/02 00:16:50;;;;;;;1.60;1.00;;;15.30;1.00;;;;;;5018369;28;20181;-80
2022/09/02 00:19:18;;;;;;;2.77;1.00;;;15.30;1.00;;;;;;5016972;28;20268;-80
2022/09/02 00:21:44;;;;;;;1.80;1.20;;;15.30;1.00;;;;;;5016472;28;20235;-80
2022/09/02 00:24:10;;;;;;;1.20;1.00;;;15.30;1.00;;;;;;5016804;28;20185;-79
2022/09/02 00:26:35;;;;;;;2.03;1.10;;;15.20;1.00;;;;;;5016372;28;20217;-80
2022/09/02 00:29:01;;;;;;;1.27;1.07;;;15.20;1.00;;;;;;5018179;28;20173;-80
2022/09/02 00:31:27;;;;;;;1.20;1.00;;;15.10;1.00;;;;;;5018324;28;20263;-80
2022/09/02 00:33:53;;;;;;;1.50;1.07;;;15.10;70.00;;;;;;5017953;28;20200;-80
2022/09/02 00:36:20;;;;;;;3.70;1.10;;;15.10;55.50;;;;;;5017378;28;20185;-80
2022/09/02 00:38:46;;;;;;;1.40;1.00;;;15.00;99.90;;;;;;5016147;28;20177;-80
2022/09/02 00:41:13;;;;;;;1.33;1.10;;;14.90;99.90;;;;;;5017597;28;20284;-80
2022/09/02 00:43:46;;;;;;;1.57;0.93;;;14.90;99.90;;;;;;5017304;28;20259;-79
2022/09/02 00:46:15;;;;;;;1.23;0.90;;;14.90;99.90;;;;;;5016981;28;20513;-79
2022/09/02 00:48:47;;;;;;;1.57;0.90;;;14.90;99.90;;;;;;5016863;28;20169;-77
2022/09/02 00:51:14;;;;;;;2.00;1.03;;;14.80;99.90;;;;;;5016087;28;20224;-80
2022/09/02 00:53:43;;;;;;;3.67;1.10;;;14.80;99.90;;;;;;5015780;28;20181;-79
2022/09/02 00:56:15;;;;;;;1.70;1.07;;;14.80;99.90;;;;;;5015785;28;20197;-80
2022/09/02 00:58:42;;;;;;;1.80;1.40;;;14.70;99.90;;;;;;5017262;28;20169;-80
2022/09/02 01:01:10;;;;;;;6.00;1.30;;;14.70;99.90;;;;;;5017131;28;20694;-80
2022/09/02 01:03:36;;;;;;;1.80;1.10;;;14.70;1.00;;;;;;5017361;28;20174;-80
2022/09/02 01:06:03;;;;;;;2.57;0.93;;;14.60;1.00;;;;;;5017550;28;20184;-80
2022/09/02 01:08:33;;;;;;;2.07;1.27;;;14.60;1.00;;;;;;5017762;28;20193;-80
2022/09/02 01:11:01;;;;;;;1.33;1.20;;;14.60;1.00;;;;;;5017746;28;20164;-80
2022/09/02 01:13:28;;;;;;;1.33;1.03;;;14.60;1.00;;;;;;5017584;28;20181;-79
2022/09/02 01:16:09;;;;;;;1.60;1.00;;;14.60;1.00;;;;;;5015924;28;20204;-80
2022/09/02 01:18:35;;;;;;;2.47;1.30;;;14.50;1.00;;;;;;5015598;28;20227;-80
2022/09/02 01:21:01;;;;;;;1.47;1.00;;;14.60;1.00;;;;;;5016776;28;20189;-80
2022/09/02 01:23:30;;;;;;;1.20;1.10;;;14.60;1.00;;;;;;5016521;28;20173;-80
2022/09/02 01:25:57;;;;;;;4.37;1.27;;;14.60;1.00;;;;;;5015467;28;20177;-80
2022/09/02 01:28:23;;;;;;;1.83;1.37;;;14.60;1.00;;;;;;5014814;28;20200;-80
2022/09/02 01:30:52;;;;;;;3.50;1.20;;;14.60;1.00;;;;;;5015393;28;20647;-79
2022/09/02 01:33:20;;;;;;;2.00;1.17;;;14.60;1.00;;;;;;5015215;28;20177;-79
2022/09/02 01:35:46;;;;;;;1.17;0.97;;;14.60;1.00;;;;;;5016878;28;20195;-79
2022/09/02 01:38:12;;;;;;;4.63;1.20;;;14.60;1.00;;;;;;5015045;28;20185;-80
2022/09/02 01:40:38;;;;;;;1.70;1.10;;;14.60;1.00;;;;;;5014561;28;20177;-79
2022/09/02 01:43:18;;;;;;;1.37;1.07;;;14.60;1.00;;;;;;5016414;28;20192;-80
2022/09/02 01:45:46;;;;;;;3.10;1.07;;;14.60;1.00;;;;;;5016342;28;20172;-80
2022/09/02 01:48:13;;;;;;;1.20;0.93;;;14.60;1.00;;;;;;5015870;28;20208;-80
2022/09/02 01:50:42;;;;;;;2.97;1.00;;;14.60;1.00;;;;;;5014186;28;20177;-79
2022/09/02 01:53:07;;;;;;;4.37;1.07;;;14.70;1.00;;;;;;5015799;28;20204;-79
2022/09/02 01:55:34;;;;;;;1.80;1.10;;;14.60;1.00;;;;;;5014766;28;20168;-80
2022/09/02 01:57:59;;;;;;;2.37;1.13;;;14.60;1.00;;;;;;5015039;28;20179;-80
2022/09/02 02:00:25;;;;;;;1.67;1.17;;;14.60;1.00;;;;;;5014685;28;20554;-80
2022/09/02 02:02:51;;;;;;;3.30;1.53;;;14.60;1.00;;;;;;5015868;28;20196;-79
2022/09/02 02:05:17;;;;;;;2.77;1.20;;;14.60;1.00;;;;;;5014380;28;20192;-79
2022/09/02 02:07:44;;;;;;;2.47;1.23;;;14.60;1.00;;;;;;5014517;28;20201;-80
2022/09/02 02:10:11;;;;;;;2.03;1.30;;;14.60;1.00;;;;;;5015848;28;20176;-80
2022/09/02 02:12:38;;;;;;;2.03;1.20;;;14.50;1.00;;;;;;5014215;28;20205;-79
2022/09/02 02:15:09;;;;;;;2.67;0.93;;;14.50;1.00;;;;;;5016109;28;20187;-79
2022/09/02 02:17:36;;;;;;;1.67;1.00;;;14.50;1.00;;;;;;5014371;28;20177;-80
2022/09/02 02:20:03;;;;;;;2.17;1.10;;;14.50;1.00;;;;;;5013966;28;20208;-80
2022/09/02 02:22:30;;;;;;;1.40;0.97;;;14.50;1.00;;;;;;5016007;28;20208;-79
2022/09/02 02:24:56;;;;;;;1.57;1.10;;;14.50;1.00;;;;;;5015727;28;20195;-79
2022/09/02 02:27:22;;;;;;;1.77;1.03;;;14.50;1.00;;;;;;5015593;28;20232;-79
2022/09/02 02:29:47;;;;;;;6.23;1.47;;;14.50;1.00;;;;;;5016144;28;20161;-78
2022/09/02 02:32:13;;;;;;;2.40;1.20;;;14.50;6.50;;;;;;5015415;28;20192;-80
2022/09/02 02:34:39;;;;;;;1.97;1.37;;;14.50;50.60;;;;;;5015907;28;20165;-79
2022/09/02 02:37:05;;;;;;;2.17;1.43;;;14.50;71.70;;;;;;5014381;28;20177;-80
2022/09/02 02:39:31;;;;;;;1.20;1.10;;;14.50;49.90;;;;;;5013857;28;20173;-81
2022/09/02 02:41:57;;;;;;;1.90;1.20;;;14.50;56.80;;;;;;5015409;28;20201;-79
2022/09/02 02:44:23;;;;;;;2.70;1.20;;;14.50;96.40;;;;;;5014821;28;20180;-80
2022/09/02 02:46:48;;;;;;;2.50;1.80;;;14.50;99.90;;;;;;5014905;28;20212;-80
2022/09/02 02:49:14;;;;;;;2.07;1.20;;;14.50;99.90;;;;;;5015564;28;20173;-80
2022/09/02 02:51:41;;;;;;;5.30;1.40;;;14.50;99.90;;;;;;5013907;28;20199;-79
2022/09/02 02:54:06;;;;;;;1.93;1.30;;;14.50;99.90;;;;;;5013913;28;20204;-79
2022/09/02 02:56:32;;;;;;;2.20;1.17;;;14.40;99.90;;;;;;5015292;28;20592;-80
2022/09/02 02:59:02;;;;;;;3.37;1.00;;;14.40;99.90;;;;;;5015088;28;20177;-80
2022/09/02 03:01:29;;;;;;;7.03;1.20;;;14.40;99.90;;;;;;5017951;28;20200;-80
2022/09/02 03:03:55;;;;;;;2.43;1.17;;;14.40;99.90;;;;;;5017794;28;20176;-78
2022/09/02 03:06:21;;;;;;;2.70;1.80;;;14.40;99.90;;;;;;5019142;28;20243;-80
2022/09/02 03:08:47;;;;;;;3.70;1.37;;;14.40;99.90;;;;;;5018326;28;20533;-80
2022/09/02 03:11:13;;;;;;;3.10;1.30;;;14.40;99.90;;;;;;5019051;28;20208;-81
2022/09/02 03:13:39;;;;;;;2.90;1.27;;;14.40;99.90;;;;;;5017583;28;20184;-80
2022/09/02 03:16:05;;;;;;;1.77;1.20;;;14.40;99.90;;;;;;5017769;28;20173;-80
2022/09/02 03:18:31;;;;;;;3.20;1.17;;;14.40;1.00;;;;;;5017913;28;20265;-80
2022/09/02 03:20:57;;;;;;;1.90;1.33;;;14.30;1.00;;;;;;5019399;28;20169;-79
2022/09/02 03:23:22;;;;;;;2.27;1.40;;;14.40;1.00;;;;;;5018897;28;20157;-80
2022/09/02 03:25:48;;;;;;;2.93;1.30;;;14.30;1.00;;;;;;5018128;28;20522;-80
2022/09/02 03:28:14;;;;;;;1.43;1.13;;;14.30;1.00;;;;;;5018766;28;20193;-79
2022/09/02 03:30:40;;;;;;;1.80;1.40;;;14.30;1.00;;;;;;5018692;28;20277;-80
2022/09/02 03:33:07;;;;;;;2.80;1.47;;;14.30;1.00;;;;;;5017077;28;20193;-80
2022/09/02 03:35:38;;;;;;;5.00;2.07;;;14.20;1.00;;;;;;5018397;28;20199;-79
2022/09/02 03:38:03;;;;;;;2.37;1.50;;;14.20;1.00;;;;;;5016950;28;20260;-80
2022/09/02 03:40:29;;;;;;;4.93;1.50;;;14.20;1.00;;;;;;5018409;28;20213;-79
2022/09/02 03:42:56;;;;;;;3.43;1.33;;;14.10;1.00;;;;;;5016572;28;20204;-80
2022/09/02 03:45:22;;;;;;;1.93;1.13;;;14.10;1.00;;;;;;5016692;28;20204;-80
2022/09/02 03:47:52;;;;;;;1.73;1.20;;;14.10;1.00;;;;;;5018000;28;20688;-80
2022/09/02 03:50:28;;;;;;;6.27;1.30;;;14.00;1.00;;;;;;5016352;28;20632;-79
2022/09/02 03:52:55;;;;;;;2.77;1.30;;;14.00;16.70;;;;;;5017762;28;20223;-79
2022/09/02 03:55:21;;;;;;;1.50;1.27;;;14.00;1.00;;;;;;5017958;28;20177;-79
2022/09/02 03:57:47;;;;;;;2.10;1.30;;;14.00;1.00;;;;;;5017503;28;20177;-80
2022/09/02 04:00:16;;;;;;;1.27;1.00;;;14.00;1.00;;;;;;5017776;28;20169;-80
2022/09/02 04:02:42;;;;;;;1.40;1.30;;;14.00;1.00;;;;;;5017893;28;20185;-79
2022/09/02 04:05:08;;;;;;;1.80;1.10;;;13.90;16.40;;;;;;5017878;28;20184;-79
2022/09/02 04:07:34;;;;;;;2.03;1.20;;;13.90;99.90;;;;;;5016142;28;20197;-79
2022/09/02 04:10:00;;;;;;;2.33;1.50;;;13.90;1.00;;;;;;5016045;28;20173;-79
2022/09/02 04:12:26;;;;;;;1.60;1.33;;;13.80;1.00;;;;;;5015338;28;20215;-80
2022/09/02 04:14:51;;;;;;;2.13;1.10;;;13.80;1.00;;;;;;5016203;28;20264;-79
2022/09/02 04:17:17;;;;;;;2.13;1.27;;;13.80;1.00;;;;;;5015585;28;20181;-80
2022/09/02 04:19:42;;;;;;;3.23;1.47;;;13.70;1.00;;;;;;5015878;28;20546;-80
2022/09/02 04:22:08;;;;;;;1.90;1.30;;;13.70;1.00;;;;;;5016596;28;20663;-77
2022/09/02 04:24:34;;;;;;;1.43;1.07;;;13.70;1.00;;;;;;5018210;28;20176;-79
2022/09/02 04:27:00;;;;;;;3.33;1.20;;;13.70;1.00;;;;;;5043066;22;20229;-78
2022/09/02 04:29:26;;;;;;;1.67;1.10;;;13.80;19.00;;;;;;5018218;28;20179;-79
2022/09/02 04:31:52;;;;;;;4.07;1.27;;;13.70;21.50;;;;;;5016427;28;20173;-79
2022/09/02 04:34:18;;;;;;;1.70;1.60;;;13.70;23.80;;;;;;5018372;28;20263;-79
2022/09/02 04:36:44;;;;;;;1.33;1.20;;;13.70;72.70;;;;;;5017186;28;20197;-79
2022/09/02 04:39:10;;;;;;;1.80;1.23;;;13.70;90.30;;;;;;5018156;28;20528;-80
2022/09/02 04:41:37;;;;;;;2.37;1.33;;;13.70;75.20;;;;;;5017713;28;20263;-82
2022/09/02 04:44:04;;;;;;;1.77;1.10;;;13.70;99.90;;;;;;5016656;28;20226;-78
2022/09/02 04:46:29;;;;;;;5.43;1.20;;;13.70;67.00;;;;;;5016282;28;20578;-79
2022/09/02 04:48:55;;;;;;;1.57;1.10;;;13.70;99.90;;;;;;5017679;28;20177;-78
2022/09/02 04:51:23;;;;;;;4.23;1.30;;;13.60;56.40;;;;;;5015695;28;20251;-78
2022/09/02 04:53:52;;;;;;;4.47;1.20;;;13.60;99.90;;;;;;5022863;28;20173;-82
2022/09/02 04:56:31;;;;;;;2.27;1.10;;;13.90;99.90;;;;;;5026543;28;20192;-82
2022/09/02 04:58:56;;;;;;;3.50;1.30;;;13.70;99.90;;;;;;5025152;28;20157;-82
2022/09/02 05:01:29;;;;;;;2.03;1.27;;;13.60;99.90;;;;;;5024271;28;20236;-79
2022/09/02 05:03:55;;;;;;;4.40;1.00;;;13.70;99.90;;;;;;5025400;28;20261;-78
2022/09/02 05:06:25;;;;;;;4.97;1.40;;;13.70;99.90;;;;;;5025674;28;20193;-78
2022/09/02 05:08:53;;;;;;;2.10;1.40;;;13.70;99.90;;;;;;5026285;28;20224;-79
2022/09/02 05:11:22;;;;;;;1.23;1.00;;;14.80;99.90;;;;;;5026084;28;20181;-79
2022/09/02 05:13:52;;;;;;;2.77;1.20;;;15.10;99.90;;;;;;5025844;28;20173;-78
2022/09/02 05:16:23;;;;;;;3.27;1.33;;;13.90;99.90;;;;;;5024647;28;20555;-78
2022/09/02 05:18:50;;;;;;;2.07;1.10;;;13.80;99.90;;;;;;5025977;28;20215;-79
2022/09/02 05:21:16;;;;;;;2.07;1.40;;;13.90;99.90;;;;;;5025724;28;20223;-79
2022/09/02 05:23:42;;;;;;;3.80;1.30;;;13.90;99.90;;;;;;5024620;28;20173;-78
2022/09/02 05:26:10;;;;;;;4.27;1.77;;;13.90;99.90;;;;;;5024570;28;20220;-78
2022/09/02 05:28:36;;;;;;;1.77;1.27;;;14.00;99.90;;;;;;5023296;28;20258;-78
2022/09/02 05:31:04;;;;;;;3.50;1.53;;;14.30;99.90;;;;;;5024146;28;20192;-78
2022/09/02 05:33:31;;;;;;;1.07;1.00;;;13.90;99.90;;;;;;5022591;28;20639;-77
2022/09/02 05:35:57;;;;;;;4.03;1.37;;;13.90;99.90;;;;;;5023551;28;20193;-78
2022/09/02 05:38:24;;;;;;;1.97;1.30;;;15.10;99.90;;;;;;5022793;28;20187;-77
2022/09/02 05:40:49;;;;;;;2.93;1.40;;;13.80;99.90;;;;;;5026185;28;20181;-78
2022/09/02 05:43:15;;;;;;;2.20;1.20;;;13.80;99.90;;;;;;5025840;28;20658;-78
2022/09/02 05:45:41;;;;;;;2.10;1.40;;;13.80;99.90;;;;;;5022779;28;20177;-78
2022/09/02 05:49:04;;;;;;;4.47;1.40;;;14.90;99.90;;;;;;5022925;28;20208;-78
2022/09/02 05:50:52;;;;;;;1.57;1.30;;;13.80;99.90;;;;;;5021092;28;20188;-78
2022/09/02 05:53:17;;;;;;;2.87;1.40;;;14.20;99.90;;;;;;5021841;28;20304;-77
2022/09/02 05:55:43;;;;;;;2.33;1.20;;;14.20;99.90;;;;;;5023680;28;20184;-78
2022/09/02 05:58:08;;;;;;;3.70;1.37;;;15.00;99.90;;;;;;5024843;28;20614;-78
2022/09/02 06:00:34;;;;;;;3.87;1.40;;;13.80;99.90;;;;;;5029368;28;20199;-78
2022/09/02 06:03:00;;;;;;;2.87;1.50;;;14.50;99.90;;;;;;5027875;28;20181;-77
2022/09/02 06:05:26;;;;;;;2.47;1.20;;;14.30;99.90;;;;;;5027826;28;20180;-77
2022/09/02 06:07:51;;;;;;;2.03;1.33;;;13.90;99.90;;;;;;5031789;28;20284;-78
2022/09/02 06:10:17;;;;;;;3.40;1.33;;;14.00;99.90;;;;;;5029183;28;20188;-77
2022/09/02 06:12:43;;;;;;;3.33;1.10;;;14.00;99.90;;;;;;5028689;28;20193;-77
2022/09/02 06:15:09;;;;;;;4.23;1.60;;;14.10;99.90;;;;;;5031528;28;20172;-76
2022/09/02 06:17:35;;;;;;;2.77;1.07;;;14.10;99.90;;;;;;5030711;28;20200;-78
2022/09/02 06:20:00;;;;;;;2.37;1.30;;;14.60;99.90;;;;;;5030155;28;20185;-78
2022/09/02 06:22:26;;;;;;;1.80;1.50;;;14.30;99.90;;;;;;5029291;28;20184;-77
2022/09/02 06:24:52;;;;;;;2.50;1.40;;;14.40;99.90;;;;;;5030665;28;20200;-77
2022/09/02 06:27:17;;;;;;;2.40;1.47;;;14.50;99.90;;;;;;5030355;28;20713;-77
2022/09/02 06:29:44;;;;;;;2.47;1.03;;;14.60;99.90;;;;;;5031528;28;20173;-77
2022/09/02 06:32:10;;;;;;;2.13;1.10;;;14.70;99.90;;;;;;5033199;28;20245;-77
2022/09/02 06:34:38;;;;;;;2.00;1.10;;;14.70;81.20;;;;;;5030328;28;20168;-77
2022/09/02 06:37:03;;;;;;;2.80;1.17;;;14.90;80.50;;;;;;5034515;28;20188;-77
2022/09/02 06:39:29;;;;;;;2.10;1.10;;;15.00;99.90;;;;;;5033845;28;20268;-77
2022/09/02 06:41:55;;;;;;;6.87;1.20;;;15.00;99.30;;;;;;5034435;28;20230;-78
2022/09/02 06:44:21;;;;;;;1.43;1.00;;;15.20;99.90;;;;;;5032235;28;20173;-77
2022/09/02 06:46:52;;;;;;;2.90;1.20;;;15.10;98.80;;;;;;5033113;28;20208;-78
2022/09/02 06:49:18;;;;;;;2.20;1.37;;;15.30;99.90;;;;;;5032713;28;20614;-78
2022/09/02 06:51:46;;;;;;;1.53;1.10;;;15.30;58.10;;;;;;5032568;28;20169;-77
2022/09/02 06:54:15;;;;;;;2.23;1.70;;;15.40;51.40;;;;;;5031893;28;20295;-78
2022/09/02 06:56:42;;;;;;;2.63;1.27;;;15.60;1.00;;;;;;5032728;28;20200;-80
2022/09/02 06:59:07;;;;;;;3.93;1.83;;;15.50;1.00;;;;;;5021105;28;20231;-80
2022/09/02 07:01:34;;;;;;;11.33;1.77;;;15.70;1.00;;;;;;5018625;28;20185;-80
2022/09/02 07:06:47;;;;;;;5.20;1.37;;;15.90;1.00;;;;;;5020041;28;20218;-80
2022/09/02 07:09:16;;;;;;;2.83;1.40;;;16.00;99.90;;;;;;5023767;28;20214;-80
2022/09/02 07:11:42;;;;;;;4.80;1.50;;;16.10;8.20;;;;;;5026259;28;20204;-80
2022/09/02 07:14:08;;;;;;;2.93;1.13;;;16.30;1.00;;;;;;5025798;28;20177;-80
2022/09/02 07:16:41;;;;;;;2.07;1.30;;;16.40;1.00;;;;;;5023939;28;20189;-81
2022/09/02 07:19:06;;;;;;;4.07;1.70;;;16.50;1.00;;;;;;5026790;28;20185;-80
2022/09/02 07:21:32;;;;;;;7.33;1.37;;;16.60;31.20;;;;;;5026504;28;20181;-80
2022/09/02 07:23:58;;;;;;;3.17;1.20;;;16.80;1.00;;;;;;5025187;28;20181;-81
2022/09/02 07:26:25;;;;;;;3.40;1.07;;;16.90;1.00;;;;;;5026876;28;20680;-81
2022/09/02 07:28:51;;;;;;;2.67;1.60;;;16.90;1.00;;;;;;5022380;28;20300;-80
2022/09/02 07:31:17;;;;;;;2.93;1.07;;;17.00;1.00;;;;;;5019736;28;20203;-81
2022/09/02 07:33:44;;;;;;;1.87;1.20;;;17.10;99.90;;;;;;5020932;28;20665;-81
2022/09/02 07:36:11;;;;;;;5.40;1.20;;;17.30;99.90;;;;;;5020732;28;20212;-81
2022/09/02 07:38:37;;;;;;;4.10;1.30;;;17.50;58.90;;;;;;5020396;28;20184;-81
2022/09/02 07:41:03;;;;;;;1.80;1.13;;;17.60;1.00;;;;;;5025684;28;20177;-81
2022/09/02 07:43:30;;;;;;;1.30;1.17;;;17.80;1.00;;;;;;5022807;28;20173;-81
2022/09/02 07:45:58;;;;;;;1.77;1.27;;;17.90;1.00;;;;;;5018595;28;20205;-81
2022/09/02 07:48:25;;;;;;;3.17;1.40;;;18.20;99.90;;;;;;5019185;28;20193;-81
2022/09/02 07:50:51;;;;;;;2.43;1.07;;;18.30;99.90;;;;;;5019353;28;20259;-81
2022/09/02 07:53:17;;;;;;;3.73;1.30;;;18.50;99.90;;;;;;5020288;28;20181;-81
2022/09/02 07:55:43;;;;;;;1.40;1.27;;;18.60;80.70;;;;;;5018588;28;20192;-79
2022/09/02 07:58:10;;;;;;;2.80;1.23;;;18.80;99.90;;;;;;5018498;28;20177;-79
2022/09/02 08:00:37;;;;;;;1.50;1.37;;;18.90;1.00;;;;;;5018319;28;20208;-79
2022/09/02 08:03:04;;;;;;;2.33;1.23;;;19.00;1.00;;;;;;5024830;28;20181;-79
2022/09/02 08:05:31;;;;;;;2.87;1.17;;;19.00;1.00;;;;;;5028154;28;20177;-79
2022/09/02 08:07:56;;;;;;;1.73;1.27;;;19.10;1.00;;;;;;5023083;28;20645;-79
2022/09/02 08:10:24;;;;;;;3.07;1.20;;;19.10;1.00;;;;;;5020487;28;20173;-79
2022/09/02 08:12:50;;;;;;;1.90;1.00;;;19.20;1.00;;;;;;5020230;28;20180;-79
2022/09/02 08:15:18;;;;;;;2.10;0.93;;;19.30;1.00;;;;;;5025797;28;20533;-79
2022/09/02 08:17:44;;;;;;;4.10;1.20;;;19.40;1.00;;;;;;5024815;28;20591;-79
2022/09/02 08:20:12;;;;;;;1.67;1.17;;;19.40;1.00;;;;;;5019251;28;20181;-79
2022/09/02 08:22:38;;;;;;;2.20;1.20;;;19.50;1.00;;;;;;5014776;28;20208;-78
2022/09/02 08:25:04;;;;;;;2.03;1.00;;;19.70;1.00;;;;;;5014332;28;20235;-78
2022/09/02 08:27:31;;;;;;;3.10;1.10;;;19.70;1.00;;;;;;5015815;28;20754;-78
2022/09/02 08:29:57;;;;;;;3.67;1.00;;;19.80;99.90;;;;;;5016656;28;20584;-78
2022/09/02 08:32:23;;;;;;;1.97;1.00;;;19.90;1.00;;;;;;5013995;28;20173;-78
2022/09/02 08:34:49;;;;;;;3.10;1.20;;;20.10;1.00;;;;;;5015162;28;20177;-77
2022/09/02 08:37:17;;;;;;;2.23;1.40;;;20.20;99.90;;;;;;5013996;28;20580;-78
2022/09/02 08:39:44;;;;;;;3.53;1.17;;;20.30;99.90;;;;;;5015074;28;20174;-78
2022/09/02 08:42:36;;;;;;;2.87;1.10;;;20.40;99.90;;;;;;5015059;28;20184;-79
2022/09/02 08:45:17;;;;;;;1.50;1.00;;;20.50;55.80;;;;;;5015318;28;20158;-80
2022/09/02 08:47:48;;;;;;;1.47;1.20;;;20.60;99.90;;;;;;5015027;28;20299;-79
2022/09/02 08:50:19;;;;;;;1.73;1.27;;;20.50;99.90;;;;;;5018382;28;20683;-79
2022/09/02 08:52:52;;;;;;;4.60;1.40;;;20.60;99.90;;;;;;5018470;28;20213;-79
2022/09/02 08:55:24;;;;;;;1.13;0.90;;;20.60;99.90;;;;;;5016144;28;20173;-80
2022/09/02 08:57:50;;;;;;;2.27;1.47;;;20.60;99.90;;;;;;5018578;28;20193;-79
2022/09/02 09:00:16;;;;;;;1.50;1.13;;;20.60;99.90;;;;;;5018874;28;20173;-80
2022/09/02 09:03:01;;;;;;;5.00;1.20;;;20.70;27.40;;;;;;5018744;28;20228;-79
2022/09/02 09:05:45;;;;;;;1.47;1.20;;;20.70;1.00;;;;;;5020469;28;20173;-79
2022/09/02 09:08:31;;;;;;;1.67;1.10;;;20.80;1.00;;;;;;5018068;28;20227;-80
2022/09/02 09:11:09;;;;;;;2.00;1.00;;;20.90;1.00;;;;;;5017199;28;20527;-78
2022/09/02 09:13:46;;;;;;;3.80;1.20;;;21.00;1.00;;;;;;5026528;28;20252;-80
2022/09/02 09:16:20;;;;;;;2.47;0.90;;;21.00;1.00;;;;;;5025778;28;20275;-80
2022/09/02 09:19:08;;;;;;;1.50;1.20;;;21.10;1.00;;;;;;5028380;28;20180;-80
2022/09/02 09:21:33;;;;;;;1.90;1.27;;;21.20;1.00;;;;;;5027783;28;20224;-80
2022/09/02 09:24:05;;;;;;;1.93;0.97;;;21.20;1.00;;;;;;5026778;28;20185;-79
2022/09/02 09:26:36;;;;;;;2.10;1.00;;;21.40;1.00;;;;;;5025490;28;20246;-81
2022/09/02 09:29:03;;;;;;;12.60;1.50;;;21.40;1.00;;;;;;5026393;28;20164;-80
2022/09/02 09:31:31;;;;;;;1.30;0.97;;;21.50;1.00;;;;;;5025618;28;20189;-80
2022/09/02 09:34:07;;;;;;;1.67;1.00;;;21.50;1.00;;;;;;5027940;28;20232;-79
2022/09/02 09:36:43;;;;;;;1.90;1.03;;;21.70;1.00;;;;;;5020467;28;20196;-80
2022/09/02 09:39:28;;;;;;;5.33;1.20;;;21.70;1.00;;;;;;5024492;28;20184;-80
2022/09/02 09:42:00;;;;;;;1.93;1.20;;;21.80;1.00;;;;;;5024883;28;20206;-80
2022/09/02 09:44:36;;;;;;;1.50;1.10;;;21.90;1.00;;;;;;5024092;28;20643;-80
2022/09/02 09:47:05;;;;;;;1.47;1.00;;;22.00;99.90;;;;;;5025308;28;20308;-80
2022/09/02 09:49:32;;;;;;;2.37;1.30;;;22.00;99.90;;;;;;5024497;28;20188;-80
2022/09/02 09:51:59;;;;;;;1.43;1.00;;;22.20;99.90;;;;;;5022307;28;20177;-80
2022/09/02 09:54:25;;;;;;;1.73;1.30;;;22.20;99.90;;;;;;5026048;28;20165;-81
2022/09/02 09:56:52;;;;;;;1.67;1.10;;;22.30;99.90;;;;;;5023358;28;20279;-79
2022/09/02 09:59:41;;;;;;;1.83;1.30;;;22.70;99.90;;;;;;5022085;28;20191;-80
2022/09/02 10:02:19;;;;;;;1.90;1.20;;;22.40;99.90;;;;;;5031168;28;20204;-79
2022/09/02 10:04:45;;;;;;;1.30;1.07;;;22.70;99.90;;;;;;5030701;28;20261;-79
2022/09/02 10:07:12;;;;;;;1.43;1.00;;;22.80;99.90;;;;;;5022307;28;20213;-80
2022/09/02 10:09:37;;;;;;;1.23;0.80;;;22.90;99.90;;;;;;5021523;28;20176;-79
2022/09/02 10:12:09;;;;;;;3.10;1.63;;;23.00;99.90;;;;;;5023249;28;20636;-80
2022/09/02 10:14:41;;;;;;;3.47;1.03;;;23.10;99.90;;;;;;5025356;28;20219;-80
2022/09/02 10:17:24;;;;;;;1.73;1.30;;;23.20;99.90;;;;;;5025363;28;20358;-80
2022/09/02 10:19:59;;;;;;;1.43;1.27;;;23.30;99.90;;;;;;5026671;28;20180;-79
2022/09/02 10:23:09;;;;;;;0.97;0.87;;;23.40;92.40;;;;;;5025641;28;20183;-80
2022/09/02 10:25:38;;;;;;;1.30;1.00;;;23.50;10.90;;;;;;5014019;28;20201;-80
2022/09/02 10:28:41;;;;;;;2.20;1.00;;;23.60;4.10;;;;;;5053321;23;20314;-82
2022/09/02 10:31:22;;;;;;;5.07;1.33;;;23.80;1.50;;;;;;5034451;28;20186;-81
2022/09/02 10:34:23;;;;;;;1.20;0.83;;;23.90;1.00;;;;;;5030783;28;20663;-81
2022/09/02 10:37:17;;;;;;;1.50;0.97;;;24.00;1.00;;;;;;5034043;28;20183;-81
2022/09/02 10:40:07;;;;;;;2.53;0.97;;;24.10;1.00;;;;;;5017257;28;20169;-82
2022/09/02 10:42:54;;;;;;;1.43;1.10;;;24.10;1.00;;;;;;5016653;28;20503;-81
2022/09/02 10:45:23;;;;;;;1.13;0.90;;;24.10;1.00;;;;;;5015782;28;20195;-81
2022/09/02 10:48:02;;;;;;;1.30;1.00;;;24.10;1.00;;;;;;5016565;28;20200;-81
2022/09/02 10:50:37;;;;;;;2.13;1.00;;;24.10;1.00;;;;;;5015901;28;20244;-81
2022/09/02 10:53:37;;;;;;;1.87;1.10;;;24.00;1.00;;;;;;5032458;28;20175;-81
2022/09/02 10:56:34;;;;;;;2.07;1.30;;;24.10;1.00;;;;;;5037057;28;20559;-81
2022/09/02 10:59:10;;;;;;;1.17;1.07;;;24.10;1.00;;;;;;5012437;28;20204;-81
2022/09/02 11:01:50;;;;;;;3.53;1.00;;;24.10;1.00;;;;;;5036913;28;20152;-81
2022/09/02 11:04:38;;;;;;;0.85;0.82;;;24.30;1.00;;;;;;5035658;28;20168;-80
2022/09/02 11:07:09;;;;;;;1.37;1.23;;;24.40;1.00;;;;;;5023737;28;20266;-80
2022/09/02 11:09:53;;;;;;;1.20;0.90;;;24.60;1.00;;;;;;5036896;28;20145;-81
2022/09/02 11:12:25;;;;;;;0.90;0.73;;;24.70;1.00;;;;;;5036659;28;20161;-81
2022/09/02 11:15:09;;;;;;;2.50;1.00;;;24.80;1.00;;;;;;5035989;28;20240;-80
2022/09/02 11:17:34;;;;;;;1.80;0.80;;;24.90;1.00;;;;;;5035167;28;20192;-81
2022/09/02 11:20:31;;;;;;;0.93;0.82;;;24.80;1.00;;;;;;5035775;28;20195;-81
2022/09/02 11:23:26;;;;;;;2.05;1.08;;;24.90;1.00;;;;;;5038467;28;20188;-81
2022/09/02 11:26:01;;;;;;;0.90;0.73;;;24.90;1.00;;;;;;5038652;28;20203;-81
2022/09/02 11:28:54;;;;;;;1.33;0.83;;;24.90;1.00;;;;;;5042724;28;20263;-80
2022/09/02 11:31:32;;;;;;;1.97;1.00;;;24.90;1.00;;;;;;5041915;28;20673;-82
2022/09/02 11:34:03;;;;;;;0.90;0.87;;;24.90;1.00;;;;;;5042220;28;20585;-81
2022/09/02 11:36:29;;;;;;;0.77;0.65;;;25.00;1.00;;;;;;5045170;28;20643;-81
2022/09/02 11:39:18;;;;;;;1.00;0.90;;;25.00;1.00;;;;;;5042583;28;20198;-82
2022/09/02 11:41:56;;;;;;;1.00;0.90;;;25.10;1.00;;;;;;5015456;28;20180;-81
2022/09/02 11:44:37;;;;;;;1.05;0.93;;;25.20;1.00;;;;;;5047964;28;20211;-80
2022/09/02 11:47:25;;;;;;;1.13;0.88;;;25.30;1.00;;;;;;5050340;28;20196;-80
2022/09/02 11:50:08;;;;;;;3.45;1.10;;;25.50;1.00;;;;;;5046120;28;20171;-78
2022/09/02 11:53:13;;;;;;;2.83;0.80;;;25.60;1.00;;;;;;5046627;28;20280;-80
2022/09/02 11:55:45;;;;;;;2.45;1.20;;;25.80;1.00;;;;;;5050999;28;20152;-80
2022/09/02 11:58:28;;;;;;;4.13;1.00;;;25.90;1.00;;;;;;5050419;28;20208;-80
2022/09/02 12:00:54;;;;;;;1.02;0.88;;;26.00;1.00;;;;;;5049722;28;20176;-80
2022/09/02 12:03:23;;;;;;;2.28;0.82;;;26.00;1.00;;;;;;5051473;28;20177;-80
2022/09/02 12:06:03;;;;;;;1.88;1.20;;;26.00;1.00;;;;;;5047954;28;20186;-80
2022/09/02 12:08:34;;;;;;;1.45;1.10;;;26.10;1.00;;;;;;5052649;28;20200;-81
2022/09/02 12:11:05;;;;;;;1.00;0.70;;;26.10;1.00;;;;;;5051824;28;20168;-79
2022/09/02 12:13:36;;;;;;;0.82;0.77;;;26.30;1.00;;;;;;5051842;28;20226;-80
2022/09/02 12:16:14;;;;;;;1.42;0.88;;;26.30;1.00;;;;;;5049336;28;20181;-80
2022/09/02 12:18:43;;;;;;;2.08;0.90;;;26.40;1.00;;;;;;5050683;28;20247;-78
2022/09/02 12:21:17;;;;;;;7.53;1.80;;;26.50;1.00;;;;;;5047729;28;20204;-79
2022/09/02 12:23:55;;;;;;;0.80;0.80;;;26.60;1.00;;;;;;5050602;28;20156;-78
2022/09/02 12:26:24;;;;;;;0.98;0.88;;;26.50;1.00;;;;;;5049501;28;20230;-78
2022/09/02 12:28:51;;;;;;;3.53;0.82;;;26.40;1.00;;;;;;5049119;28;20212;-77
2022/09/02 12:31:42;;;;;;;1.35;0.77;;;26.30;1.00;;;;;;5048083;28;20169;-79
2022/09/02 12:34:20;;;;;;;4.72;0.80;;;26.20;1.00;;;;;;5026117;28;20180;-76
2022/09/02 12:36:47;;;;;;;1.77;0.98;;;26.20;1.00;;;;;;5027774;28;20179;-78
2022/09/02 12:41:57;;;;;;;1.30;1.20;;;26.10;1.00;;;;;;5022864;28;20211;-78
2022/09/02 12:44:38;;;;;;;3.15;1.15;;;26.10;1.00;;;;;;5022436;28;20161;-78
2022/09/02 12:47:19;;;;;;;1.75;1.02;;;26.00;1.00;;;;;;5019676;28;20208;-78
2022/09/02 12:50:02;;;;;;;1.17;1.08;;;25.90;1.00;;;;;;5037377;28;20184;-78
2022/09/02 12:52:33;;;;;;;1.10;1.00;;;25.90;1.00;;;;;;5039176;28;20157;-78
2022/09/02 12:55:09;;;;;;;0.85;0.73;;;25.80;1.00;;;;;;5038250;28;20203;-79
2022/09/02 12:57:43;;;;;;;2.05;1.00;;;25.90;1.00;;;;;;5036989;28;20200;-79
2022/09/02 13:00:15;;;;;;;1.13;0.90;;;25.90;1.00;;;;;;5038222;28;20164;-78
2022/09/02 13:02:58;;;;;;;1.48;0.90;;;25.90;1.00;;;;;;5038642;28;20597;-78
2022/09/02 13:05:32;;;;;;;1.67;0.93;;;26.10;1.00;;;;;;5034545;28;20183;-79
2022/09/02 13:08:09;;;;;;;2.40;0.98;;;26.30;1.00;;;;;;5037663;28;20206;-79
2022/09/02 13:10:56;;;;;;;2.03;0.90;;;26.50;1.00;;;;;;5037554;28;20153;-78
2022/09/02 13:13:43;;;;;;;1.17;0.75;;;26.60;1.00;;;;;;5037918;28;20216;-78
2022/09/02 13:16:29;;;;;;;1.23;0.93;;;26.80;1.00;;;;;;5037106;28;20163;-78